Portland, Oregon
Traffic Map
Current Weather Conditions
Portland, Oregon
Few Clouds
Few Clouds
19°
Feels Like: 19°
Wind Chill: 19° Ceiling: Unl
Heat Index: 19° Visibility: 10mi
Dew Point: Wind: 9mph
Humidity: 42% Direction: 360° (N)
Pressure: 30.16in Gusts: 0mph
Raw Report DataKPDX 300253Z 36008KT 10SM FEW055 FEW080 FEW250 19/06 A3016 RMK AO2 SLP214 T01940061 53005
Traffic Incident Summary
Active as of:
Severity:
Category:
InformationThere was an issue retrieving the traffic information for this location. Please try a different location or try again shortly.
Advertisements
Track Severe Weather on mobile